Archival Weather

Fukuoka

Fukuoka, Japan (RJFF)

Report from: Tuesday, August 16, 2022 3:30 AM JST
Current time: Sunday, November 27, 2022 6:04 PM JST

Current weather
Weather history
Weather forecast

Temperature29.0°C (84.2°F)
Heat index33.7°C (92.7°F)
Dew point24.0°C (75.2°F)
Winds 8 kts (4.1 m/s, 9.2 mph) Vrb
Winds variableWinds variable from South-Southeast (160°) to Southwest (230°)
Visibility6.2 mi. (10 km)
Clouds Scattered clouds 3,700 ft. (1,128 m)
Scattered clouds 6,000 ft. (1,829 m)
Ceiling: Broken clouds 7,000 ft. (2,134 m)
Altimeter29.71 in.Hg (1006 mB)
Relative humidity75 %
Density altitude2,251 ft. (686 m)
Remarks Fully automated report
No significant changes expected in the next two hours
Flight conditions Visual Meteorological Conditions
Raw dataRJFF 151830Z AUTO 20008KT 160V230 9999 SCT037 SCT060 BKN070 29/24 Q1006 NOSIG RMK A2971
An error has occurred. This application may no longer respond until reloaded. Reload 🗙